sensor_id;sensor_type;location;lat;lon;timestamp;P1;durP1;ratioP1;P2;durP2;ratioP2
41115;SDS011;26861;51.824;4.682;2023-05-07T00:00:21;0.50;;;0.50;;
41115;SDS011;26861;51.824;4.682;2023-05-07T00:02:47;0.70;;;0.47;;
41115;SDS011;26861;51.824;4.682;2023-05-07T00:05:13;0.60;;;0.60;;
41115;SDS011;26861;51.824;4.682;2023-05-07T00:07:39;0.85;;;0.85;;
41115;SDS011;26861;51.824;4.682;2023-05-07T00:10:05;2.03;;;0.88;;
41115;SDS011;26861;51.824;4.682;2023-05-07T00:12:32;0.50;;;0.50;;
41115;SDS011;26861;51.824;4.682;2023-05-07T00:14:59;1.38;;;0.80;;
41115;SDS011;26861;51.824;4.682;2023-05-07T00:17:25;1.10;;;0.73;;
41115;SDS011;26861;51.824;4.682;2023-05-07T00:19:51;0.68;;;0.60;;
41115;SDS011;26861;51.824;4.682;2023-05-07T00:22:17;0.73;;;0.70;;
41115;SDS011;26861;51.824;4.682;2023-05-07T00:24:43;0.80;;;0.63;;
41115;SDS011;26861;51.824;4.682;2023-05-07T00:27:09;0.60;;;0.60;;
41115;SDS011;26861;51.824;4.682;2023-05-07T00:29:35;0.60;;;0.60;;
41115;SDS011;26861;51.824;4.682;2023-05-07T00:32:02;0.80;;;0.52;;
41115;SDS011;26861;51.824;4.682;2023-05-07T00:34:28;0.75;;;0.68;;
41115;SDS011;26861;51.824;4.682;2023-05-07T00:36:54;0.60;;;0.60;;
41115;SDS011;26861;51.824;4.682;2023-05-07T00:39:21;0.57;;;0.57;;
41115;SDS011;26861;51.824;4.682;2023-05-07T00:41:47;1.83;;;0.90;;
41115;SDS011;26861;51.824;4.682;2023-05-07T00:44:13;0.75;;;0.75;;
41115;SDS011;26861;51.824;4.682;2023-05-07T00:46:40;1.08;;;0.60;;
41115;SDS011;26861;51.824;4.682;2023-05-07T00:49:06;0.55;;;0.55;;
41115;SDS011;26861;51.824;4.682;2023-05-07T00:51:32;0.40;;;0.40;;
41115;SDS011;26861;51.824;4.682;2023-05-07T00:53:59;0.82;;;0.60;;
41115;SDS011;26861;51.824;4.682;2023-05-07T00:56:26;0.80;;;0.80;;
41115;SDS011;26861;51.824;4.682;2023-05-07T00:58:52;0.57;;;0.57;;
41115;SDS011;26861;51.824;4.682;2023-05-07T01:01:18;0.70;;;0.60;;
41115;SDS011;26861;51.824;4.682;2023-05-07T01:03:44;0.50;;;0.50;;
41115;SDS011;26861;51.824;4.682;2023-05-07T01:06:09;0.77;;;0.75;;
41115;SDS011;26861;51.824;4.682;2023-05-07T01:08:37;0.75;;;0.63;;
41115;SDS011;26861;51.824;4.682;2023-05-07T01:11:05;0.70;;;0.60;;
41115;SDS011;26861;51.824;4.682;2023-05-07T01:13:31;1.48;;;0.68;;
41115;SDS011;26861;51.824;4.682;2023-05-07T01:15:58;0.60;;;0.60;;
41115;SDS011;26861;51.824;4.682;2023-05-07T01:18:24;0.68;;;0.68;;
41115;SDS011;26861;51.824;4.682;2023-05-07T01:20:51;0.93;;;0.50;;
41115;SDS011;26861;51.824;4.682;2023-05-07T01:23:17;0.60;;;0.60;;
41115;SDS011;26861;51.824;4.682;2023-05-07T01:25:50;2.63;;;0.80;;
41115;SDS011;26861;51.824;4.682;2023-05-07T01:28:19;0.70;;;0.70;;
41115;SDS011;26861;51.824;4.682;2023-05-07T01:30:46;1.13;;;0.52;;
41115;SDS011;26861;51.824;4.682;2023-05-07T01:33:15;0.45;;;0.45;;
41115;SDS011;26861;51.824;4.682;2023-05-07T01:35:46;0.68;;;0.68;;
41115;SDS011;26861;51.824;4.682;2023-05-07T01:38:15;0.70;;;0.57;;
41115;SDS011;26861;51.824;4.682;2023-05-07T01:40:41;0.95;;;0.88;;
41115;SDS011;26861;51.824;4.682;2023-05-07T01:43:07;0.77;;;0.50;;
41115;SDS011;26861;51.824;4.682;2023-05-07T01:45:34;0.65;;;0.63;;
41115;SDS011;26861;51.824;4.682;2023-05-07T01:48:01;0.80;;;0.50;;
41115;SDS011;26861;51.824;4.682;2023-05-07T01:50:27;0.60;;;0.45;;
41115;SDS011;26861;51.824;4.682;2023-05-07T01:52:53;0.55;;;0.52;;
41115;SDS011;26861;51.824;4.682;2023-05-07T01:55:19;0.70;;;0.70;;
41115;SDS011;26861;51.824;4.682;2023-05-07T01:57:45;1.02;;;0.80;;
41115;SDS011;26861;51.824;4.682;2023-05-07T02:00:11;0.70;;;0.50;;
41115;SDS011;26861;51.824;4.682;2023-05-07T02:02:37;0.50;;;0.50;;
41115;SDS011;26861;51.824;4.682;2023-05-07T02:05:03;0.50;;;0.50;;
41115;SDS011;26861;51.824;4.682;2023-05-07T02:07:30;1.05;;;0.43;;
41115;SDS011;26861;51.824;4.682;2023-05-07T02:09:56;0.65;;;0.50;;
41115;SDS011;26861;51.824;4.682;2023-05-07T02:12:22;0.50;;;0.50;;
41115;SDS011;26861;51.824;4.682;2023-05-07T02:14:49;1.30;;;0.55;;
41115;SDS011;26861;51.824;4.682;2023-05-07T02:17:15;0.65;;;0.50;;
41115;SDS011;26861;51.824;4.682;2023-05-07T02:19:41;0.77;;;0.57;;
41115;SDS011;26861;51.824;4.682;2023-05-07T02:22:07;0.90;;;0.80;;
41115;SDS011;26861;51.824;4.682;2023-05-07T02:24:33;0.47;;;0.47;;
41115;SDS011;26861;51.824;4.682;2023-05-07T02:26:59;0.60;;;0.40;;
41115;SDS011;26861;51.824;4.682;2023-05-07T02:29:25;0.60;;;0.60;;
41115;SDS011;26861;51.824;4.682;2023-05-07T02:31:51;0.50;;;0.50;;
41115;SDS011;26861;51.824;4.682;2023-05-07T02:34:18;0.65;;;0.57;;
41115;SDS011;26861;51.824;4.682;2023-05-07T02:36:43;0.52;;;0.52;;
41115;SDS011;26861;51.824;4.682;2023-05-07T02:39:09;0.60;;;0.60;;
41115;SDS011;26861;51.824;4.682;2023-05-07T02:41:35;0.85;;;0.57;;
41115;SDS011;26861;51.824;4.682;2023-05-07T02:44:00;0.68;;;0.60;;
41115;SDS011;26861;51.824;4.682;2023-05-07T02:46:26;0.65;;;0.32;;
41115;SDS011;26861;51.824;4.682;2023-05-07T02:48:52;0.80;;;0.60;;
41115;SDS011;26861;51.824;4.682;2023-05-07T02:51:20;0.70;;;0.70;;
41115;SDS011;26861;51.824;4.682;2023-05-07T02:53:47;0.55;;;0.55;;
41115;SDS011;26861;51.824;4.682;2023-05-07T02:56:13;0.35;;;0.32;;
41115;SDS011;26861;51.824;4.682;2023-05-07T02:58:39;0.52;;;0.52;;
41115;SDS011;26861;51.824;4.682;2023-05-07T03:01:07;0.82;;;0.50;;
41115;SDS011;26861;51.824;4.682;2023-05-07T03:03:34;0.55;;;0.40;;
41115;SDS011;26861;51.824;4.682;2023-05-07T03:06:00;0.80;;;0.57;;
41115;SDS011;26861;51.824;4.682;2023-05-07T03:08:26;0.75;;;0.63;;
41115;SDS011;26861;51.824;4.682;2023-05-07T03:10:52;0.43;;;0.40;;
41115;SDS011;26861;51.824;4.682;2023-05-07T03:13:18;0.52;;;0.50;;
41115;SDS011;26861;51.824;4.682;2023-05-07T03:15:44;0.93;;;0.40;;
41115;SDS011;26861;51.824;4.682;2023-05-07T03:18:10;0.70;;;0.65;;
41115;SDS011;26861;51.824;4.682;2023-05-07T03:20:37;0.70;;;0.43;;
41115;SDS011;26861;51.824;4.682;2023-05-07T03:23:03;1.20;;;0.50;;
41115;SDS011;26861;51.824;4.682;2023-05-07T03:25:29;0.47;;;0.47;;
41115;SDS011;26861;51.824;4.682;2023-05-07T03:27:56;0.73;;;0.40;;
41115;SDS011;26861;51.824;4.682;2023-05-07T03:30:22;1.60;;;0.50;;
41115;SDS011;26861;51.824;4.682;2023-05-07T03:32:48;0.60;;;0.60;;
41115;SDS011;26861;51.824;4.682;2023-05-07T03:35:14;0.70;;;0.60;;
41115;SDS011;26861;51.824;4.682;2023-05-07T03:37:40;0.52;;;0.40;;
41115;SDS011;26861;51.824;4.682;2023-05-07T03:40:07;0.85;;;0.52;;
41115;SDS011;26861;51.824;4.682;2023-05-07T03:42:35;1.25;;;0.73;;
41115;SDS011;26861;51.824;4.682;2023-05-07T03:45:01;0.50;;;0.50;;
41115;SDS011;26861;51.824;4.682;2023-05-07T03:47:28;0.95;;;0.65;;
41115;SDS011;26861;51.824;4.682;2023-05-07T03:49:54;1.55;;;0.70;;
41115;SDS011;26861;51.824;4.682;2023-05-07T03:52:20;0.32;;;0.30;;
41115;SDS011;26861;51.824;4.682;2023-05-07T03:54:51;0.93;;;0.50;;
41115;SDS011;26861;51.824;4.682;2023-05-07T03:57:18;0.52;;;0.50;;
41115;SDS011;26861;51.824;4.682;2023-05-07T03:59:44;0.95;;;0.70;;
41115;SDS011;26861;51.824;4.682;2023-05-07T04:02:11;0.70;;;0.50;;
41115;SDS011;26861;51.824;4.682;2023-05-07T04:04:37;1.35;;;0.55;;
41115;SDS011;26861;51.824;4.682;2023-05-07T04:07:03;0.40;;;0.40;;
41115;SDS011;26861;51.824;4.682;2023-05-07T04:09:30;0.70;;;0.60;;
41115;SDS011;26861;51.824;4.682;2023-05-07T04:11:56;0.50;;;0.50;;
41115;SDS011;26861;51.824;4.682;2023-05-07T04:14:22;0.75;;;0.68;;
41115;SDS011;26861;51.824;4.682;2023-05-07T04:16:48;1.67;;;0.70;;
41115;SDS011;26861;51.824;4.682;2023-05-07T04:19:14;0.60;;;0.60;;
41115;SDS011;26861;51.824;4.682;2023-05-07T04:21:40;0.80;;;0.70;;
41115;SDS011;26861;51.824;4.682;2023-05-07T04:24:06;0.77;;;0.60;;
41115;SDS011;26861;51.824;4.682;2023-05-07T04:26:32;0.70;;;0.70;;
41115;SDS011;26861;51.824;4.682;2023-05-07T04:28:59;0.60;;;0.60;;
41115;SDS011;26861;51.824;4.682;2023-05-07T04:31:25;0.52;;;0.52;;
41115;SDS011;26861;51.824;4.682;2023-05-07T04:33:51;3.78;;;0.50;;
41115;SDS011;26861;51.824;4.682;2023-05-07T04:36:18;1.58;;;0.68;;
41115;SDS011;26861;51.824;4.682;2023-05-07T04:38:44;0.50;;;0.40;;
41115;SDS011;26861;51.824;4.682;2023-05-07T04:41:12;0.40;;;0.40;;
41115;SDS011;26861;51.824;4.682;2023-05-07T04:43:38;0.63;;;0.50;;
41115;SDS011;26861;51.824;4.682;2023-05-07T04:46:05;0.70;;;0.52;;
41115;SDS011;26861;51.824;4.682;2023-05-07T04:48:31;0.55;;;0.40;;
41115;SDS011;26861;51.824;4.682;2023-05-07T04:50:57;1.17;;;0.50;;
41115;SDS011;26861;51.824;4.682;2023-05-07T04:53:23;0.88;;;0.57;;
41115;SDS011;26861;51.824;4.682;2023-05-07T04:55:54;0.65;;;0.50;;
41115;SDS011;26861;51.824;4.682;2023-05-07T04:58:22;1.48;;;0.60;;
41115;SDS011;26861;51.824;4.682;2023-05-07T05:00:48;0.82;;;0.63;;
41115;SDS011;26861;51.824;4.682;2023-05-07T05:03:14;0.70;;;0.60;;
41115;SDS011;26861;51.824;4.682;2023-05-07T05:05:40;1.05;;;0.60;;
41115;SDS011;26861;51.824;4.682;2023-05-07T05:08:05;1.50;;;0.68;;
41115;SDS011;26861;51.824;4.682;2023-05-07T05:10:31;0.60;;;0.50;;
41115;SDS011;26861;51.824;4.682;2023-05-07T05:12:57;0.40;;;0.40;;
41115;SDS011;26861;51.824;4.682;2023-05-07T05:15:23;0.75;;;0.60;;
41115;SDS011;26861;51.824;4.682;2023-05-07T05:17:49;0.60;;;0.60;;
41115;SDS011;26861;51.824;4.682;2023-05-07T05:20:15;0.63;;;0.47;;
41115;SDS011;26861;51.824;4.682;2023-05-07T05:22:41;1.38;;;0.63;;
41115;SDS011;26861;51.824;4.682;2023-05-07T05:25:07;0.93;;;0.70;;
41115;SDS011;26861;51.824;4.682;2023-05-07T05:27:33;0.80;;;0.45;;
41115;SDS011;26861;51.824;4.682;2023-05-07T05:29:59;1.42;;;0.70;;
41115;SDS011;26861;51.824;4.682;2023-05-07T05:32:25;0.73;;;0.73;;
41115;SDS011;26861;51.824;4.682;2023-05-07T05:34:51;0.60;;;0.57;;
41115;SDS011;26861;51.824;4.682;2023-05-07T05:37:17;1.40;;;0.73;;
41115;SDS011;26861;51.824;4.682;2023-05-07T05:39:43;1.02;;;0.60;;
41115;SDS011;26861;51.824;4.682;2023-05-07T05:42:09;0.55;;;0.50;;
41115;SDS011;26861;51.824;4.682;2023-05-07T05:44:35;1.00;;;0.70;;
41115;SDS011;26861;51.824;4.682;2023-05-07T05:47:01;0.70;;;0.70;;
41115;SDS011;26861;51.824;4.682;2023-05-07T05:49:27;0.65;;;0.50;;
41115;SDS011;26861;51.824;4.682;2023-05-07T05:51:53;0.88;;;0.85;;
41115;SDS011;26861;51.824;4.682;2023-05-07T05:54:19;0.90;;;0.90;;
41115;SDS011;26861;51.824;4.682;2023-05-07T05:56:45;0.82;;;0.80;;
41115;SDS011;26861;51.824;4.682;2023-05-07T05:59:11;1.30;;;1.00;;
41115;SDS011;26861;51.824;4.682;2023-05-07T06:01:37;1.40;;;1.30;;
41115;SDS011;26861;51.824;4.682;2023-05-07T06:04:03;1.48;;;1.30;;
41115;SDS011;26861;51.824;4.682;2023-05-07T06:06:29;1.58;;;1.48;;
41115;SDS011;26861;51.824;4.682;2023-05-07T06:08:56;1.70;;;1.60;;
41115;SDS011;26861;51.824;4.682;2023-05-07T06:11:22;2.28;;;2.10;;
41115;SDS011;26861;51.824;4.682;2023-05-07T06:13:47;2.53;;;2.42;;
41115;SDS011;26861;51.824;4.682;2023-05-07T06:16:13;2.42;;;2.33;;
41115;SDS011;26861;51.824;4.682;2023-05-07T06:18:40;2.33;;;2.22;;
41115;SDS011;26861;51.824;4.682;2023-05-07T06:21:06;3.15;;;2.95;;
41115;SDS011;26861;51.824;4.682;2023-05-07T06:23:31;3.33;;;3.13;;
41115;SDS011;26861;51.824;4.682;2023-05-07T06:25:57;3.70;;;3.50;;
41115;SDS011;26861;51.824;4.682;2023-05-07T06:28:23;3.90;;;3.70;;
41115;SDS011;26861;51.824;4.682;2023-05-07T06:30:49;4.30;;;4.00;;
41115;SDS011;26861;51.824;4.682;2023-05-07T06:33:15;4.40;;;4.00;;
41115;SDS011;26861;51.824;4.682;2023-05-07T06:35:41;4.70;;;4.40;;
41115;SDS011;26861;51.824;4.682;2023-05-07T06:38:07;4.20;;;3.95;;
41115;SDS011;26861;51.824;4.682;2023-05-07T06:40:33;3.85;;;3.65;;
41115;SDS011;26861;51.824;4.682;2023-05-07T06:42:59;4.70;;;4.40;;
41115;SDS011;26861;51.824;4.682;2023-05-07T06:45:25;4.75;;;4.28;;
41115;SDS011;26861;51.824;4.682;2023-05-07T06:47:51;4.45;;;4.15;;
41115;SDS011;26861;51.824;4.682;2023-05-07T06:50:17;4.68;;;4.40;;
41115;SDS011;26861;51.824;4.682;2023-05-07T06:52:43;4.80;;;4.47;;
41115;SDS011;26861;51.824;4.682;2023-05-07T06:55:09;4.80;;;4.50;;
41115;SDS011;26861;51.824;4.682;2023-05-07T06:57:36;5.20;;;4.80;;
41115;SDS011;26861;51.824;4.682;2023-05-07T07:00:01;4.65;;;4.35;;
41115;SDS011;26861;51.824;4.682;2023-05-07T07:02:28;4.57;;;4.30;;
41115;SDS011;26861;51.824;4.682;2023-05-07T07:04:53;4.50;;;4.20;;
41115;SDS011;26861;51.824;4.682;2023-05-07T07:07:19;4.43;;;4.20;;
41115;SDS011;26861;51.824;4.682;2023-05-07T07:09:45;7.22;;;4.07;;
41115;SDS011;26861;51.824;4.682;2023-05-07T07:12:11;4.00;;;3.80;;
41115;SDS011;26861;51.824;4.682;2023-05-07T07:14:37;3.83;;;3.63;;
41115;SDS011;26861;51.824;4.682;2023-05-07T07:17:03;4.57;;;4.28;;
41115;SDS011;26861;51.824;4.682;2023-05-07T07:19:30;3.97;;;3.72;;
41115;SDS011;26861;51.824;4.682;2023-05-07T07:21:55;4.30;;;4.00;;
41115;SDS011;26861;51.824;4.682;2023-05-07T07:24:21;3.88;;;3.67;;
41115;SDS011;26861;51.824;4.682;2023-05-07T07:26:47;3.97;;;3.67;;
41115;SDS011;26861;51.824;4.682;2023-05-07T07:29:13;4.10;;;3.80;;
41115;SDS011;26861;51.824;4.682;2023-05-07T07:31:39;3.92;;;3.72;;
41115;SDS011;26861;51.824;4.682;2023-05-07T07:34:05;3.72;;;3.53;;
41115;SDS011;26861;51.824;4.682;2023-05-07T07:36:31;3.72;;;3.53;;
41115;SDS011;26861;51.824;4.682;2023-05-07T07:38:57;3.13;;;2.92;;
41115;SDS011;26861;51.824;4.682;2023-05-07T07:41:23;4.28;;;3.55;;
41115;SDS011;26861;51.824;4.682;2023-05-07T07:43:49;3.30;;;3.10;;
41115;SDS011;26861;51.824;4.682;2023-05-07T07:46:15;3.17;;;2.97;;
41115;SDS011;26861;51.824;4.682;2023-05-07T07:48:41;3.17;;;2.97;;
41115;SDS011;26861;51.824;4.682;2023-05-07T07:51:07;3.00;;;2.80;;
41115;SDS011;26861;51.824;4.682;2023-05-07T07:53:33;2.90;;;2.67;;
41115;SDS011;26861;51.824;4.682;2023-05-07T07:56:00;3.38;;;2.75;;
41115;SDS011;26861;51.824;4.682;2023-05-07T07:58:26;2.78;;;2.58;;
41115;SDS011;26861;51.824;4.682;2023-05-07T08:00:52;2.40;;;2.30;;
41115;SDS011;26861;51.824;4.682;2023-05-07T08:03:21;2.30;;;2.20;;
41115;SDS011;26861;51.824;4.682;2023-05-07T08:05:47;2.50;;;2.38;;
41115;SDS011;26861;51.824;4.682;2023-05-07T08:08:15;1.95;;;1.85;;
41115;SDS011;26861;51.824;4.682;2023-05-07T08:10:41;2.22;;;2.00;;
41115;SDS011;26861;51.824;4.682;2023-05-07T08:13:07;2.05;;;1.95;;
41115;SDS011;26861;51.824;4.682;2023-05-07T08:15:33;1.73;;;1.63;;
41115;SDS011;26861;51.824;4.682;2023-05-07T08:17:59;1.80;;;1.70;;
41115;SDS011;26861;51.824;4.682;2023-05-07T08:20:25;2.17;;;1.92;;
41115;SDS011;26861;51.824;4.682;2023-05-07T08:22:51;3.33;;;1.80;;
41115;SDS011;26861;51.824;4.682;2023-05-07T08:25:17;1.95;;;1.85;;
41115;SDS011;26861;51.824;4.682;2023-05-07T08:27:43;1.80;;;1.70;;
41115;SDS011;26861;51.824;4.682;2023-05-07T08:30:10;1.70;;;1.60;;
41115;SDS011;26861;51.824;4.682;2023-05-07T08:32:36;1.35;;;1.25;;
41115;SDS011;26861;51.824;4.682;2023-05-07T08:35:01;2.53;;;1.73;;
41115;SDS011;26861;51.824;4.682;2023-05-07T08:37:27;1.40;;;1.30;;
41115;SDS011;26861;51.824;4.682;2023-05-07T08:39:53;1.60;;;1.50;;
41115;SDS011;26861;51.824;4.682;2023-05-07T08:42:19;1.35;;;1.25;;
41115;SDS011;26861;51.824;4.682;2023-05-07T08:44:48;1.50;;;1.17;;
41115;SDS011;26861;51.824;4.682;2023-05-07T08:47:18;1.75;;;1.65;;
41115;SDS011;26861;51.824;4.682;2023-05-07T08:49:44;2.25;;;1.33;;
41115;SDS011;26861;51.824;4.682;2023-05-07T08:52:11;1.40;;;1.15;;
41115;SDS011;26861;51.824;4.682;2023-05-07T08:54:37;1.00;;;1.00;;
41115;SDS011;26861;51.824;4.682;2023-05-07T08:57:03;1.35;;;1.02;;
41115;SDS011;26861;51.824;4.682;2023-05-07T08:59:29;1.92;;;1.15;;
41115;SDS011;26861;51.824;4.682;2023-05-07T09:01:55;1.08;;;1.00;;
41115;SDS011;26861;51.824;4.682;2023-05-07T09:04:21;1.10;;;0.85;;
41115;SDS011;26861;51.824;4.682;2023-05-07T09:06:47;1.05;;;1.00;;
41115;SDS011;26861;51.824;4.682;2023-05-07T09:09:16;1.25;;;1.10;;
41115;SDS011;26861;51.824;4.682;2023-05-07T09:11:45;2.78;;;1.08;;
41115;SDS011;26861;51.824;4.682;2023-05-07T09:14:11;1.52;;;1.13;;
41115;SDS011;26861;51.824;4.682;2023-05-07T09:16:37;1.30;;;0.70;;
41115;SDS011;26861;51.824;4.682;2023-05-07T09:19:03;0.80;;;0.80;;
41115;SDS011;26861;51.824;4.682;2023-05-07T09:21:29;1.00;;;0.82;;
41115;SDS011;26861;51.824;4.682;2023-05-07T09:23:55;1.45;;;0.98;;
41115;SDS011;26861;51.824;4.682;2023-05-07T09:26:22;1.25;;;1.13;;
41115;SDS011;26861;51.824;4.682;2023-05-07T09:28:48;1.58;;;1.00;;
41115;SDS011;26861;51.824;4.682;2023-05-07T09:31:13;0.70;;;0.70;;
41115;SDS011;26861;51.824;4.682;2023-05-07T09:33:39;1.05;;;0.90;;
41115;SDS011;26861;51.824;4.682;2023-05-07T09:36:05;1.52;;;1.08;;
41115;SDS011;26861;51.824;4.682;2023-05-07T09:38:33;1.35;;;1.00;;
41115;SDS011;26861;51.824;4.682;2023-05-07T09:43:31;2.05;;;0.93;;
41115;SDS011;26861;51.824;4.682;2023-05-07T09:46:13;1.75;;;0.88;;
41115;SDS011;26861;51.824;4.682;2023-05-07T09:48:43;1.02;;;0.93;;
41115;SDS011;26861;51.824;4.682;2023-05-07T09:51:32;1.23;;;0.80;;
41115;SDS011;26861;51.824;4.682;2023-05-07T09:53:58;1.05;;;0.73;;
41115;SDS011;26861;51.824;4.682;2023-05-07T09:56:26;1.42;;;0.93;;
41115;SDS011;26861;51.824;4.682;2023-05-07T09:58:52;1.10;;;0.80;;
41115;SDS011;26861;51.824;4.682;2023-05-07T10:01:20;1.25;;;0.98;;
41115;SDS011;26861;51.824;4.682;2023-05-07T10:03:47;1.00;;;0.75;;
41115;SDS011;26861;51.824;4.682;2023-05-07T10:06:15;1.40;;;0.90;;
41115;SDS011;26861;51.824;4.682;2023-05-07T10:08:42;1.08;;;1.00;;
41115;SDS011;26861;51.824;4.682;2023-05-07T10:11:08;0.80;;;0.80;;
41115;SDS011;26861;51.824;4.682;2023-05-07T10:13:34;1.67;;;0.90;;
41115;SDS011;26861;51.824;4.682;2023-05-07T10:16:03;1.42;;;0.80;;
41115;SDS011;26861;51.824;4.682;2023-05-07T10:18:32;0.70;;;0.70;;
41115;SDS011;26861;51.824;4.682;2023-05-07T10:21:04;0.82;;;0.60;;
41115;SDS011;26861;51.824;4.682;2023-05-07T10:23:44;0.90;;;0.65;;
41115;SDS011;26861;51.824;4.682;2023-05-07T10:26:13;1.02;;;0.70;;
41115;SDS011;26861;51.824;4.682;2023-05-07T10:28:44;1.80;;;0.98;;
41115;SDS011;26861;51.824;4.682;2023-05-07T10:34:17;1.13;;;0.82;;
41115;SDS011;26861;51.824;4.682;2023-05-07T10:36:48;1.10;;;0.63;;
41115;SDS011;26861;51.824;4.682;2023-05-07T10:39:16;1.02;;;0.70;;
41115;SDS011;26861;51.824;4.682;2023-05-07T10:41:42;2.05;;;0.82;;
41115;SDS011;26861;51.824;4.682;2023-05-07T10:44:08;0.98;;;0.65;;
41115;SDS011;26861;51.824;4.682;2023-05-07T10:46:34;0.80;;;0.80;;
41115;SDS011;26861;51.824;4.682;2023-05-07T10:51:46;1.00;;;0.90;;
41115;SDS011;26861;51.824;4.682;2023-05-07T10:54:46;0.77;;;0.77;;
41115;SDS011;26861;51.824;4.682;2023-05-07T10:59:57;1.48;;;0.73;;
41115;SDS011;26861;51.824;4.682;2023-05-07T11:02:23;1.70;;;0.80;;
41115;SDS011;26861;51.824;4.682;2023-05-07T11:07:59;0.75;;;0.50;;
41115;SDS011;26861;51.824;4.682;2023-05-07T11:13:16;1.80;;;1.42;;
41115;SDS011;26861;51.824;4.682;2023-05-07T11:15:44;2.50;;;1.02;;
41115;SDS011;26861;51.824;4.682;2023-05-07T11:18:12;1.98;;;1.20;;
41115;SDS011;26861;51.824;4.682;2023-05-07T11:20:46;1.92;;;1.73;;
41115;SDS011;26861;51.824;4.682;2023-05-07T11:26:06;2.40;;;1.20;;
41115;SDS011;26861;51.824;4.682;2023-05-07T11:28:40;1.75;;;1.10;;
41115;SDS011;26861;51.824;4.682;2023-05-07T11:31:06;1.63;;;1.20;;
41115;SDS011;26861;51.824;4.682;2023-05-07T11:33:33;2.70;;;1.65;;
41115;SDS011;26861;51.824;4.682;2023-05-07T11:36:00;1.63;;;1.50;;
41115;SDS011;26861;51.824;4.682;2023-05-07T11:38:28;1.98;;;1.48;;
41115;SDS011;26861;51.824;4.682;2023-05-07T11:41:01;3.05;;;1.50;;
41115;SDS011;26861;51.824;4.682;2023-05-07T11:43:30;3.58;;;1.63;;
41115;SDS011;26861;51.824;4.682;2023-05-07T11:46:10;1.88;;;1.48;;
41115;SDS011;26861;51.824;4.682;2023-05-07T11:48:37;1.60;;;1.17;;
41115;SDS011;26861;51.824;4.682;2023-05-07T11:51:04;2.50;;;1.02;;
41115;SDS011;26861;51.824;4.682;2023-05-07T11:53:38;1.58;;;0.77;;
41115;SDS011;26861;51.824;4.682;2023-05-07T11:56:09;1.13;;;0.68;;
41115;SDS011;26861;51.824;4.682;2023-05-07T11:58:36;1.65;;;0.82;;
41115;SDS011;26861;51.824;4.682;2023-05-07T12:01:02;0.70;;;0.70;;
41115;SDS011;26861;51.824;4.682;2023-05-07T12:03:28;0.88;;;0.50;;
41115;SDS011;26861;51.824;4.682;2023-05-07T12:05:53;3.92;;;1.00;;
41115;SDS011;26861;51.824;4.682;2023-05-07T12:08:20;1.88;;;0.90;;
41115;SDS011;26861;51.824;4.682;2023-05-07T12:10:48;1.58;;;0.65;;
41115;SDS011;26861;51.824;4.682;2023-05-07T12:13:18;3.03;;;1.08;;
41115;SDS011;26861;51.824;4.682;2023-05-07T12:15:50;1.70;;;0.75;;
41115;SDS011;26861;51.824;4.682;2023-05-07T12:18:20;3.60;;;1.13;;
41115;SDS011;26861;51.824;4.682;2023-05-07T12:20:47;3.92;;;1.02;;
41115;SDS011;26861;51.824;4.682;2023-05-07T12:23:14;3.47;;;1.05;;
41115;SDS011;26861;51.824;4.682;2023-05-07T12:25:41;1.75;;;0.75;;
41115;SDS011;26861;51.824;4.682;2023-05-07T12:28:16;3.03;;;0.80;;
41115;SDS011;26861;51.824;4.682;2023-05-07T12:30:43;1.80;;;0.80;;
41115;SDS011;26861;51.824;4.682;2023-05-07T12:33:11;1.52;;;0.82;;
41115;SDS011;26861;51.824;4.682;2023-05-07T12:35:39;3.28;;;0.80;;
41115;SDS011;26861;51.824;4.682;2023-05-07T12:38:13;4.88;;;1.50;;
41115;SDS011;26861;51.824;4.682;2023-05-07T12:40:41;2.03;;;1.20;;
41115;SDS011;26861;51.824;4.682;2023-05-07T12:43:15;2.40;;;1.38;;
41115;SDS011;26861;51.824;4.682;2023-05-07T12:45:49;2.97;;;0.80;;
41115;SDS011;26861;51.824;4.682;2023-05-07T12:48:15;1.10;;;1.00;;
41115;SDS011;26861;51.824;4.682;2023-05-07T12:50:42;1.38;;;0.93;;
41115;SDS011;26861;51.824;4.682;2023-05-07T12:53:10;2.00;;;0.75;;
41115;SDS011;26861;51.824;4.682;2023-05-07T12:55:44;4.03;;;0.88;;
41115;SDS011;26861;51.824;4.682;2023-05-07T12:58:15;4.65;;;0.98;;
41115;SDS011;26861;51.824;4.682;2023-05-07T13:00:41;3.25;;;1.10;;
41115;SDS011;26861;51.824;4.682;2023-05-07T13:03:08;1.77;;;1.00;;
41115;SDS011;26861;51.824;4.682;2023-05-07T13:05:35;1.95;;;1.20;;
41115;SDS011;26861;51.824;4.682;2023-05-07T13:08:00;2.92;;;0.75;;
41115;SDS011;26861;51.824;4.682;2023-05-07T13:10:26;1.67;;;0.82;;
41115;SDS011;26861;51.824;4.682;2023-05-07T13:12:53;1.23;;;0.70;;
41115;SDS011;26861;51.824;4.682;2023-05-07T13:15:18;2.67;;;0.88;;
41115;SDS011;26861;51.824;4.682;2023-05-07T13:17:46;1.40;;;0.70;;
41115;SDS011;26861;51.824;4.682;2023-05-07T13:20:12;2.53;;;0.88;;
41115;SDS011;26861;51.824;4.682;2023-05-07T13:22:38;4.13;;;1.00;;
41115;SDS011;26861;51.824;4.682;2023-05-07T13:25:04;1.88;;;1.10;;
41115;SDS011;26861;51.824;4.682;2023-05-07T13:27:31;2.53;;;0.65;;
41115;SDS011;26861;51.824;4.682;2023-05-07T13:29:57;1.45;;;0.90;;
41115;SDS011;26861;51.824;4.682;2023-05-07T13:32:23;2.42;;;0.95;;
41115;SDS011;26861;51.824;4.682;2023-05-07T13:34:50;3.50;;;0.80;;
41115;SDS011;26861;51.824;4.682;2023-05-07T13:37:16;1.23;;;0.88;;
41115;SDS011;26861;51.824;4.682;2023-05-07T13:39:42;2.50;;;0.85;;
41115;SDS011;26861;51.824;4.682;2023-05-07T13:42:08;3.20;;;0.90;;
41115;SDS011;26861;51.824;4.682;2023-05-07T13:44:34;3.95;;;1.00;;
41115;SDS011;26861;51.824;4.682;2023-05-07T13:47:00;1.35;;;0.70;;
41115;SDS011;26861;51.824;4.682;2023-05-07T13:49:26;1.63;;;0.93;;
41115;SDS011;26861;51.824;4.682;2023-05-07T13:51:52;1.20;;;1.10;;
41115;SDS011;26861;51.824;4.682;2023-05-07T13:54:18;1.40;;;0.93;;
41115;SDS011;26861;51.824;4.682;2023-05-07T13:56:45;1.27;;;0.60;;
41115;SDS011;26861;51.824;4.682;2023-05-07T13:59:11;2.25;;;0.75;;
41115;SDS011;26861;51.824;4.682;2023-05-07T14:01:39;2.08;;;1.00;;
41115;SDS011;26861;51.824;4.682;2023-05-07T14:04:06;1.33;;;0.60;;
41115;SDS011;26861;51.824;4.682;2023-05-07T14:06:32;2.35;;;0.70;;
41115;SDS011;26861;51.824;4.682;2023-05-07T14:08:58;1.40;;;0.88;;
41115;SDS011;26861;51.824;4.682;2023-05-07T14:11:25;2.08;;;0.95;;
41115;SDS011;26861;51.824;4.682;2023-05-07T14:13:50;2.67;;;0.73;;
41115;SDS011;26861;51.824;4.682;2023-05-07T14:16:16;1.63;;;0.68;;
41115;SDS011;26861;51.824;4.682;2023-05-07T14:18:42;1.92;;;0.82;;
41115;SDS011;26861;51.824;4.682;2023-05-07T14:21:08;0.88;;;0.70;;
41115;SDS011;26861;51.824;4.682;2023-05-07T14:23:34;2.45;;;0.63;;
41115;SDS011;26861;51.824;4.682;2023-05-07T14:26:00;2.08;;;0.63;;
41115;SDS011;26861;51.824;4.682;2023-05-07T14:28:26;1.15;;;0.60;;
41115;SDS011;26861;51.824;4.682;2023-05-07T14:30:52;0.93;;;0.50;;
41115;SDS011;26861;51.824;4.682;2023-05-07T14:33:18;4.38;;;1.10;;
41115;SDS011;26861;51.824;4.682;2023-05-07T14:35:44;1.00;;;0.60;;
41115;SDS011;26861;51.824;4.682;2023-05-07T14:38:14;1.13;;;0.77;;
41115;SDS011;26861;51.824;4.682;2023-05-07T14:40:41;1.42;;;0.63;;
41115;SDS011;26861;51.824;4.682;2023-05-07T14:43:06;0.88;;;0.60;;
41115;SDS011;26861;51.824;4.682;2023-05-07T14:45:32;1.33;;;0.57;;
41115;SDS011;26861;51.824;4.682;2023-05-07T14:47:57;0.82;;;0.63;;
41115;SDS011;26861;51.824;4.682;2023-05-07T14:50:23;1.05;;;0.63;;
41115;SDS011;26861;51.824;4.682;2023-05-07T14:52:49;1.98;;;0.70;;
41115;SDS011;26861;51.824;4.682;2023-05-07T14:55:15;2.17;;;1.90;;
41115;SDS011;26861;51.824;4.682;2023-05-07T14:57:40;5.55;;;2.72;;
41115;SDS011;26861;51.824;4.682;2023-05-07T15:00:06;3.67;;;2.78;;
41115;SDS011;26861;51.824;4.682;2023-05-07T15:02:33;5.30;;;3.47;;
41115;SDS011;26861;51.824;4.682;2023-05-07T15:04:59;3.65;;;2.97;;